createdAt,value
2022-09-09T00:00:47.355Z,78.50
2022-09-09T00:01:47.332Z,78.59
2022-09-09T00:02:47.420Z,78.50
2022-09-09T00:03:47.414Z,78.30
2022-09-09T00:04:47.304Z,77.99
2022-09-09T00:05:47.284Z,77.69
2022-09-09T00:06:47.283Z,76.84
2022-09-09T00:07:47.296Z,76.88
2022-09-09T00:08:47.254Z,77.08
2022-09-09T00:09:47.253Z,76.98
2022-09-09T00:10:47.244Z,76.78
2022-09-09T00:11:47.245Z,76.48
2022-09-09T00:12:47.245Z,76.28
2022-09-09T00:13:47.202Z,76.38
2022-09-09T00:14:47.208Z,76.28
2022-09-09T00:15:47.226Z,76.38
2022-09-09T00:16:47.178Z,76.48
2022-09-09T00:17:47.184Z,76.38
2022-09-09T00:18:47.155Z,76.38
2022-09-09T00:19:47.136Z,76.68
2022-09-09T00:20:47.126Z,76.58
2022-09-09T00:21:47.117Z,76.58
2022-09-09T00:22:47.128Z,76.58
2022-09-09T00:23:47.126Z,76.68
2022-09-09T00:24:47.080Z,76.68
2022-09-09T00:25:50.725Z,76.78
2022-09-09T00:26:48.062Z,76.88
2022-09-09T00:27:47.058Z,76.68
2022-09-09T00:28:47.059Z,76.58
2022-09-09T00:29:47.039Z,76.78
2022-09-09T00:30:47.076Z,76.78
2022-09-09T00:31:47.018Z,76.75
2022-09-09T00:32:46.999Z,76.44
2022-09-09T00:33:47.030Z,76.44
2022-09-09T00:34:46.980Z,76.34
2022-09-09T00:35:46.972Z,76.34
2022-09-09T00:36:46.961Z,76.44
2022-09-09T00:37:46.953Z,76.44
2022-09-09T00:38:46.938Z,76.54
2022-09-09T00:39:46.997Z,76.54
2022-09-09T00:40:46.912Z,76.54
2022-09-09T00:41:46.931Z,76.54
2022-09-09T00:42:46.895Z,76.44
2022-09-09T00:43:46.882Z,75.74
2022-09-09T00:44:46.873Z,75.74
2022-09-09T00:45:46.922Z,75.84
2022-09-09T00:46:46.852Z,75.74
2022-09-09T00:47:46.844Z,75.84
2022-09-09T00:48:46.833Z,75.94
2022-09-09T00:49:46.851Z,75.63
2022-09-09T00:50:46.804Z,75.63
2022-09-09T00:51:46.824Z,75.74
2022-09-09T00:52:46.805Z,75.74
2022-09-09T00:53:46.775Z,75.74
2022-09-09T00:54:46.765Z,75.84
2022-09-09T00:55:46.757Z,74.93
2022-09-09T00:56:46.748Z,74.93
2022-09-09T00:57:46.766Z,75.23
2022-09-09T00:58:46.747Z,75.34
2022-09-09T00:59:46.716Z,75.03
2022-09-09T01:00:46.697Z,74.49
2022-09-09T01:01:46.716Z,74.79
2022-09-09T01:02:46.783Z,75.03
2022-09-09T01:03:46.668Z,74.73
2022-09-09T01:04:46.657Z,74.83
2022-09-09T01:05:46.655Z,74.93
2022-09-09T01:06:46.658Z,75.13
2022-09-09T01:07:46.630Z,75.23
2022-09-09T01:08:46.638Z,74.93
2022-09-09T01:09:46.609Z,74.73
2022-09-09T01:10:46.589Z,74.63
2022-09-09T01:11:46.590Z,74.79
2022-09-09T01:12:46.570Z,74.52
2022-09-09T01:13:46.568Z,74.43
2022-09-09T01:14:46.552Z,74.49
2022-09-09T01:15:46.569Z,74.69
2022-09-09T01:16:46.586Z,74.69
2022-09-09T01:17:46.520Z,74.69
2022-09-09T01:18:46.510Z,74.49
2022-09-09T01:19:46.502Z,74.59
2022-09-09T01:20:46.481Z,74.90
2022-09-09T01:21:46.478Z,75.30
2022-09-09T01:22:46.489Z,74.99
2022-09-09T01:23:46.453Z,74.79
2022-09-09T01:24:46.462Z,74.79
2022-09-09T01:25:46.432Z,74.90
2022-09-09T01:26:46.442Z,74.99
2022-09-09T01:27:46.414Z,74.99
2022-09-09T01:28:46.393Z,74.99
2022-09-09T01:29:46.422Z,74.99
2022-09-09T01:30:46.441Z,74.99
2022-09-09T01:31:46.375Z,74.99
2022-09-09T01:32:46.361Z,75.20
2022-09-09T01:33:46.345Z,74.90
2022-09-09T01:34:46.355Z,74.79
2022-09-09T01:35:46.327Z,74.49
2022-09-09T01:36:46.315Z,74.08
2022-09-09T01:37:46.308Z,74.19
2022-09-09T01:38:46.287Z,74.19
2022-09-09T01:39:46.391Z,74.39
2022-09-09T01:40:46.296Z,73.68
2022-09-09T01:41:46.267Z,73.88
2022-09-09T01:42:46.247Z,73.68
2022-09-09T01:43:46.245Z,73.48
2022-09-09T01:44:46.226Z,73.48
2022-09-09T01:45:46.307Z,73.38
2022-09-09T01:46:46.207Z,73.58
2022-09-09T01:47:46.198Z,73.48
2022-09-09T01:48:46.189Z,73.48
2022-09-09T01:49:46.180Z,73.38
2022-09-09T01:50:46.161Z,73.18
2022-09-09T01:51:46.156Z,73.18
2022-09-09T01:52:46.159Z,73.18
2022-09-09T01:53:46.144Z,73.28
2022-09-09T01:54:46.151Z,73.38
2022-09-09T01:55:46.132Z,73.18
2022-09-09T01:56:46.124Z,72.78
2022-09-09T01:57:46.103Z,72.78
2022-09-09T01:58:46.093Z,72.58
2022-09-09T01:59:46.106Z,72.58
2022-09-09T02:00:46.074Z,72.58
2022-09-09T02:01:46.074Z,72.47
2022-09-09T02:02:46.102Z,72.58
2022-09-09T02:03:46.034Z,72.58
2022-09-09T02:04:46.053Z,72.78
2022-09-09T02:05:46.045Z,72.78
2022-09-09T02:06:46.016Z,72.58
2022-09-09T02:07:46.025Z,72.58
2022-09-09T02:08:45.988Z,72.58
2022-09-09T02:09:45.977Z,72.67
2022-09-09T02:10:46.006Z,72.67
2022-09-09T02:11:45.946Z,72.81
2022-09-09T02:12:45.947Z,72.91
2022-09-09T02:13:45.937Z,72.91
2022-09-09T02:14:45.938Z,73.01
2022-09-09T02:15:45.967Z,73.01
2022-09-09T02:16:45.973Z,73.11
2022-09-09T02:17:45.898Z,73.42
2022-09-09T02:18:45.899Z,73.52
2022-09-09T02:19:45.860Z,73.32
2022-09-09T02:20:45.879Z,73.42
2022-09-09T02:21:45.868Z,73.42
2022-09-09T02:22:45.848Z,73.62
2022-09-09T02:23:45.851Z,73.62
2022-09-09T02:24:45.831Z,73.62
2022-09-09T02:25:45.800Z,73.62
2022-09-09T02:26:45.830Z,73.85
2022-09-09T02:27:45.790Z,73.96
2022-09-09T02:28:45.771Z,74.26
2022-09-09T02:29:45.761Z,74.36
2022-09-09T02:30:45.873Z,75.37
2022-09-09T02:31:45.741Z,75.37
2022-09-09T02:32:45.755Z,75.16
2022-09-09T02:33:45.721Z,74.87
2022-09-09T02:34:45.721Z,74.96
2022-09-09T02:35:45.710Z,75.07
2022-09-09T02:36:45.693Z,74.76
2022-09-09T02:37:45.712Z,74.76
2022-09-09T02:38:45.673Z,74.66
2022-09-09T02:39:45.719Z,74.76
2022-09-09T02:40:45.664Z,74.87
2022-09-09T02:41:45.634Z,74.96
2022-09-09T02:42:45.625Z,74.90
2022-09-09T02:43:45.615Z,75.10
2022-09-09T02:44:45.604Z,75.07
2022-09-09T02:45:45.645Z,75.00
2022-09-09T02:46:45.575Z,75.00
2022-09-09T02:47:45.572Z,75.10
2022-09-09T02:48:45.567Z,75.20
2022-09-09T02:49:45.545Z,75.31
2022-09-09T02:50:45.536Z,75.40
2022-09-09T02:51:45.544Z,75.40
2022-09-09T02:52:45.535Z,75.51
2022-09-09T02:53:45.497Z,75.60
2022-09-09T02:54:45.497Z,75.71
2022-09-09T02:55:45.495Z,76.11
2022-09-09T02:56:45.499Z,76.31
2022-09-09T02:57:45.468Z,76.45
2022-09-09T02:58:45.482Z,76.45
2022-09-09T02:59:45.448Z,76.55
2022-09-09T03:00:45.501Z,76.65
2022-09-09T03:01:45.419Z,76.65
2022-09-09T03:02:45.456Z,76.86
2022-09-09T03:03:45.424Z,76.95
2022-09-09T03:04:45.463Z,76.95
2022-09-09T03:05:45.380Z,77.06
2022-09-09T03:06:45.374Z,77.15
2022-09-09T03:07:45.390Z,77.26
2022-09-09T03:08:49.529Z,77.26
2022-09-09T03:09:45.341Z,77.46
2022-09-09T03:10:45.322Z,77.46
2022-09-09T03:11:45.308Z,77.56
2022-09-09T03:12:45.323Z,77.76
2022-09-09T03:13:45.311Z,77.66
2022-09-09T03:14:45.302Z,77.80
2022-09-09T03:15:45.282Z,77.90
2022-09-09T03:16:45.315Z,78.20
2022-09-09T03:17:45.242Z,78.30
2022-09-09T03:18:45.234Z,78.61
2022-09-09T03:19:45.263Z,78.91
2022-09-09T03:20:45.223Z,78.97
2022-09-09T03:21:45.203Z,78.91
2022-09-09T03:22:45.195Z,78.81
2022-09-09T03:23:45.195Z,78.77
2022-09-09T03:24:45.193Z,78.57
2022-09-09T03:25:45.195Z,78.57
2022-09-09T03:26:45.155Z,78.37
2022-09-09T03:27:45.138Z,77.97
2022-09-09T03:28:45.126Z,77.97
2022-09-09T03:29:45.156Z,77.97
2022-09-09T03:30:45.117Z,77.76
2022-09-09T03:31:45.160Z,77.66
2022-09-09T03:32:48.883Z,77.86
2022-09-09T03:33:45.067Z,77.66
2022-09-09T03:34:45.087Z,77.66
2022-09-09T03:35:45.067Z,77.66
2022-09-09T03:36:45.047Z,77.76
2022-09-09T03:37:45.047Z,77.76
2022-09-09T03:38:45.037Z,77.86
2022-09-09T03:39:45.040Z,78.10
2022-09-09T03:40:45.018Z,78.50
2022-09-09T03:41:44.989Z,78.71
2022-09-09T03:42:45.018Z,78.71
2022-09-09T03:43:44.966Z,78.91
2022-09-09T03:44:44.980Z,79.11
2022-09-09T03:45:44.987Z,79.32
2022-09-09T03:46:44.947Z,79.41
2022-09-09T03:47:44.938Z,79.41
2022-09-09T03:48:44.930Z,79.62
2022-09-09T03:49:44.907Z,79.62
2022-09-09T03:50:44.891Z,79.62
2022-09-09T03:51:44.881Z,79.72
2022-09-09T03:52:44.871Z,79.62
2022-09-09T03:53:44.873Z,79.72
2022-09-09T03:54:44.852Z,79.62
2022-09-09T03:55:44.857Z,79.62
2022-09-09T03:56:44.834Z,79.62
2022-09-09T03:57:44.832Z,79.72
2022-09-09T03:58:44.823Z,79.72
2022-09-09T03:59:44.802Z,79.82
2022-09-09T04:00:44.816Z,79.82
2022-09-09T04:01:44.798Z,79.92
2022-09-09T04:02:44.773Z,79.92
2022-09-09T04:03:44.773Z,80.02
2022-09-09T04:04:44.754Z,80.12
2022-09-09T04:05:44.744Z,80.26
2022-09-09T04:06:44.725Z,80.43
2022-09-09T04:07:44.715Z,80.46
2022-09-09T04:08:44.724Z,80.43
2022-09-09T04:09:44.704Z,80.43
2022-09-09T04:10:44.704Z,80.43
2022-09-09T04:11:44.665Z,80.32
2022-09-09T04:12:47.786Z,80.43
2022-09-09T04:13:44.659Z,80.43
2022-09-09T04:14:44.646Z,80.32
2022-09-09T04:15:44.636Z,80.32
2022-09-09T04:16:44.695Z,80.22
2022-09-09T04:17:44.599Z,80.32
2022-09-09T04:18:44.608Z,80.32
2022-09-09T04:19:44.598Z,80.32
2022-09-09T04:20:44.567Z,80.32
2022-09-09T04:21:44.567Z,80.43
2022-09-09T04:22:44.567Z,80.32
2022-09-09T04:23:44.568Z,80.32
2022-09-09T04:24:48.166Z,80.32
2022-09-09T04:25:44.529Z,80.22
2022-09-09T04:26:44.518Z,80.22
2022-09-09T04:27:44.508Z,80.22
2022-09-09T04:28:44.500Z,80.32
2022-09-09T04:29:44.500Z,80.32
2022-09-09T04:30:44.480Z,80.43
2022-09-09T04:31:44.488Z,80.43
2022-09-09T04:32:44.463Z,80.32
2022-09-09T04:33:44.441Z,80.43
2022-09-09T04:34:44.421Z,80.43
2022-09-09T04:35:44.421Z,80.43
2022-09-09T04:36:44.442Z,80.39
2022-09-09T04:37:44.397Z,80.39
2022-09-09T04:38:44.392Z,80.29
2022-09-09T04:39:44.439Z,80.19
2022-09-09T04:40:44.363Z,79.99
2022-09-09T04:41:44.344Z,79.88
2022-09-09T04:42:44.331Z,79.79
2022-09-09T04:43:44.357Z,79.58
2022-09-09T04:44:44.313Z,79.48
2022-09-09T04:45:44.377Z,79.48
2022-09-09T04:46:44.313Z,79.28
2022-09-09T04:47:44.293Z,79.28
2022-09-09T04:48:44.284Z,79.38
2022-09-09T04:49:44.281Z,79.17
2022-09-09T04:50:44.263Z,79.17
2022-09-09T04:51:44.244Z,79.28
2022-09-09T04:52:44.234Z,79.38
2022-09-09T04:53:44.214Z,79.52
2022-09-09T04:54:44.216Z,79.62
2022-09-09T04:55:44.215Z,79.62
2022-09-09T04:56:44.259Z,79.62
2022-09-09T04:57:44.197Z,79.72
2022-09-09T04:58:44.232Z,79.72
2022-09-09T04:59:44.166Z,79.82
2022-09-09T05:00:44.187Z,79.82
2022-09-09T05:01:44.188Z,79.72
2022-09-09T05:02:44.178Z,79.62
2022-09-09T05:03:44.167Z,79.72
2022-09-09T05:04:44.127Z,79.62
2022-09-09T05:05:44.108Z,79.62
2022-09-09T05:06:44.091Z,79.75
2022-09-09T05:07:44.068Z,79.86
2022-09-09T05:08:44.070Z,79.96
2022-09-09T05:09:44.058Z,79.86
2022-09-09T05:10:44.065Z,79.75
2022-09-09T05:11:44.027Z,79.75
2022-09-09T05:12:44.009Z,79.66
2022-09-09T05:13:44.010Z,79.66
2022-09-09T05:14:44.000Z,79.52
2022-09-09T05:15:44.038Z,79.52
2022-09-09T05:16:44.011Z,79.62
2022-09-09T05:17:43.987Z,79.32
2022-09-09T05:18:43.961Z,79.21
2022-09-09T05:19:43.950Z,79.21
2022-09-09T05:20:43.942Z,79.21
2022-09-09T05:21:43.951Z,79.11
2022-09-09T05:22:43.901Z,79.21
2022-09-09T05:23:43.912Z,79.11
2022-09-09T05:24:43.893Z,79.21
2022-09-09T05:25:43.892Z,79.17
2022-09-09T05:26:43.861Z,78.47
2022-09-09T05:27:43.873Z,78.67
2022-09-09T05:28:43.853Z,78.97
2022-09-09T05:29:43.881Z,78.88
2022-09-09T05:30:43.833Z,78.77
2022-09-09T05:31:43.910Z,78.77
2022-09-09T05:32:43.814Z,78.77
2022-09-09T05:33:44.508Z,78.74
2022-09-09T05:34:43.885Z,78.53
2022-09-09T05:35:44.483Z,78.53
2022-09-09T05:36:43.765Z,78.53
2022-09-09T05:37:44.779Z,78.53
2022-09-09T05:38:43.746Z,78.63
2022-09-09T05:39:44.490Z,78.63
2022-09-09T05:40:43.726Z,78.74
2022-09-09T05:41:44.424Z,78.84
2022-09-09T05:42:43.705Z,78.63
2022-09-09T05:43:43.917Z,78.53
2022-09-09T05:44:43.697Z,78.53
2022-09-09T05:45:43.727Z,78.53
2022-09-09T05:46:43.696Z,78.63
2022-09-09T05:47:43.750Z,78.63
2022-09-09T05:48:43.668Z,78.63
2022-09-09T05:49:43.638Z,78.63
2022-09-09T05:50:43.638Z,78.43
2022-09-09T05:51:43.618Z,78.33
2022-09-09T05:52:43.579Z,78.33
2022-09-09T05:53:43.589Z,78.30
2022-09-09T05:54:43.590Z,78.39
2022-09-09T05:55:43.573Z,78.39
2022-09-09T05:56:43.540Z,78.39
2022-09-09T05:57:43.540Z,78.39
2022-09-09T05:58:43.530Z,78.30
2022-09-09T05:59:43.520Z,78.39
2022-09-09T06:00:43.523Z,78.39
2022-09-09T06:01:43.675Z,78.39
2022-09-09T06:02:43.599Z,78.39
2022-09-09T06:03:43.481Z,78.30
2022-09-09T06:04:43.462Z,78.19
2022-09-09T06:05:43.463Z,77.95
2022-09-09T06:06:43.460Z,77.66
2022-09-09T06:07:43.443Z,77.55
2022-09-09T06:08:43.423Z,77.66
2022-09-09T06:09:43.682Z,77.45
2022-09-09T06:10:43.392Z,77.25
2022-09-09T06:11:43.394Z,77.01
2022-09-09T06:12:43.383Z,76.61
2022-09-09T06:13:43.354Z,76.51
2022-09-09T06:14:46.401Z,76.17
2022-09-09T06:15:43.355Z,75.96
2022-09-09T06:16:43.426Z,75.67
2022-09-09T06:17:43.326Z,75.43
2022-09-09T06:18:43.321Z,75.33
2022-09-09T06:19:43.325Z,75.13
2022-09-09T06:20:43.296Z,75.23
2022-09-09T06:21:43.285Z,75.13
2022-09-09T06:22:43.278Z,75.13
2022-09-09T06:23:43.255Z,75.23
2022-09-09T06:24:43.261Z,75.23
2022-09-09T06:25:43.247Z,75.33
2022-09-09T06:26:43.507Z,75.13
2022-09-09T06:27:43.210Z,75.13
2022-09-09T06:28:43.208Z,74.82
2022-09-09T06:29:43.197Z,75.02
2022-09-09T06:30:43.186Z,74.93
2022-09-09T06:31:43.225Z,75.02
2022-09-09T06:32:43.178Z,74.62
2022-09-09T06:33:43.157Z,74.73
2022-09-09T06:34:43.129Z,74.82
2022-09-09T06:35:43.159Z,74.73
2022-09-09T06:36:43.109Z,74.22
2022-09-09T06:37:43.171Z,74.22
2022-09-09T06:38:43.089Z,74.22
2022-09-09T06:39:43.158Z,74.12
2022-09-09T06:40:43.070Z,74.42
2022-09-09T06:41:43.071Z,74.02
2022-09-09T06:42:43.071Z,74.22
2022-09-09T06:43:43.052Z,74.22
2022-09-09T06:44:43.030Z,73.92
2022-09-09T06:45:43.052Z,73.78
2022-09-09T06:46:43.165Z,73.68
2022-09-09T06:47:43.012Z,73.98
2022-09-09T06:48:42.993Z,74.08
2022-09-09T06:49:46.486Z,73.88
2022-09-09T06:50:43.973Z,72.88
2022-09-09T06:51:42.973Z,72.97
2022-09-09T06:52:42.943Z,73.08
2022-09-09T06:53:43.222Z,73.18
2022-09-09T06:54:42.934Z,72.94
2022-09-09T06:55:42.916Z,72.84
2022-09-09T06:56:42.932Z,72.84
2022-09-09T06:57:42.905Z,72.84
2022-09-09T06:58:42.915Z,72.54
2022-09-09T06:59:42.883Z,72.64
2022-09-09T07:00:42.923Z,72.54
2022-09-09T07:01:42.922Z,72.64
2022-09-09T07:02:42.845Z,72.81
2022-09-09T07:03:42.856Z,72.91
2022-09-09T07:04:42.866Z,72.91
2022-09-09T07:05:42.807Z,72.91
2022-09-09T07:06:42.807Z,72.30
2022-09-09T07:07:42.815Z,72.20
2022-09-09T07:08:42.807Z,72.17
2022-09-09T07:09:42.797Z,72.07
2022-09-09T07:10:42.768Z,71.87
2022-09-09T07:11:42.790Z,71.97
2022-09-09T07:12:42.738Z,72.17
2022-09-09T07:13:42.739Z,72.27
2022-09-09T07:14:42.719Z,72.13
2022-09-09T07:15:42.732Z,72.13
2022-09-09T07:16:42.711Z,71.83
2022-09-09T07:17:42.721Z,71.53
2022-09-09T07:18:42.699Z,71.09
2022-09-09T07:19:42.983Z,71.09
2022-09-09T07:20:42.651Z,70.86
2022-09-09T07:21:42.653Z,70.86
2022-09-09T07:22:42.642Z,70.66
2022-09-09T07:23:42.671Z,70.56
2022-09-09T07:24:42.631Z,70.36
2022-09-09T07:25:42.610Z,70.36
2022-09-09T07:26:42.592Z,70.23
2022-09-09T07:27:42.582Z,70.03
2022-09-09T07:28:42.582Z,69.92
2022-09-09T07:29:42.553Z,70.03
2022-09-09T07:30:42.553Z,69.82
2022-09-09T07:31:42.652Z,69.53
2022-09-09T07:32:42.534Z,69.62
2022-09-09T07:33:42.521Z,69.69
2022-09-09T07:34:42.534Z,69.69
2022-09-09T07:35:42.496Z,69.59
2022-09-09T07:36:42.505Z,69.69
2022-09-09T07:37:42.825Z,69.69
2022-09-09T07:38:42.475Z,69.59
2022-09-09T07:39:42.486Z,69.69
2022-09-09T07:40:42.435Z,69.79
2022-09-09T07:41:42.438Z,69.35
2022-09-09T07:42:42.456Z,69.16
2022-09-09T07:43:42.418Z,68.85
2022-09-09T07:44:42.410Z,68.76
2022-09-09T07:45:42.387Z,68.85
2022-09-09T07:46:42.457Z,68.85
2022-09-09T07:47:42.378Z,68.46
2022-09-09T07:48:42.448Z,68.46
2022-09-09T07:49:42.368Z,68.96
2022-09-09T07:50:42.339Z,68.96
2022-09-09T07:51:42.359Z,69.06
2022-09-09T07:52:42.338Z,69.19
2022-09-09T07:53:42.309Z,69.39
2022-09-09T07:54:42.309Z,69.19
2022-09-09T07:55:42.318Z,69.42
2022-09-09T07:56:42.266Z,69.92
2022-09-09T07:57:42.260Z,69.73
2022-09-09T07:58:42.249Z,69.92
2022-09-09T07:59:42.291Z,69.92
2022-09-09T08:00:42.222Z,70.23
2022-09-09T08:01:42.284Z,70.23
2022-09-09T08:02:42.242Z,70.53
2022-09-09T08:03:42.202Z,70.63
2022-09-09T08:04:44.002Z,70.39
2022-09-09T08:05:42.204Z,70.19
2022-09-09T08:06:42.182Z,70.19
2022-09-09T08:07:42.153Z,69.79
2022-09-09T08:08:42.143Z,69.26
2022-09-09T08:09:42.203Z,69.06
2022-09-09T08:10:42.137Z,68.96
2022-09-09T08:11:42.120Z,68.65
2022-09-09T08:12:47.701Z,68.76
2022-09-09T08:13:43.105Z,68.76
2022-09-09T08:14:42.450Z,68.85
2022-09-09T08:15:42.089Z,69.16
2022-09-09T08:16:42.105Z,69.16
2022-09-09T08:17:42.103Z,69.16
2022-09-09T08:18:42.034Z,68.85
2022-09-09T08:19:42.047Z,68.85
2022-09-09T08:20:42.048Z,69.06
2022-09-09T08:21:42.006Z,69.35
2022-09-09T08:22:42.018Z,69.06
2022-09-09T08:23:42.027Z,69.06
2022-09-09T08:24:41.988Z,69.26
2022-09-09T08:25:41.968Z,69.06
2022-09-09T08:26:42.068Z,69.16
2022-09-09T08:27:41.965Z,68.26
2022-09-09T08:28:41.954Z,68.05
2022-09-09T08:29:41.938Z,68.22
2022-09-09T08:30:41.991Z,67.92
2022-09-09T08:31:41.910Z,67.72
2022-09-09T08:32:45.029Z,67.22
2022-09-09T08:33:41.907Z,67.32
2022-09-09T08:34:46.468Z,67.09
2022-09-09T08:35:42.918Z,66.99
2022-09-09T08:36:42.184Z,67.09
2022-09-09T08:37:41.850Z,67.05
2022-09-09T08:38:42.160Z,67.25
2022-09-09T08:39:41.898Z,67.05
2022-09-09T08:40:41.834Z,67.25
2022-09-09T08:41:41.807Z,66.96
2022-09-09T08:42:42.081Z,67.05
2022-09-09T08:43:41.792Z,67.05
2022-09-09T08:44:44.502Z,66.96
2022-09-09T08:45:42.764Z,66.86
2022-09-09T08:46:41.806Z,65.75
2022-09-09T08:47:41.752Z,65.55
2022-09-09T08:48:41.744Z,65.55
2022-09-09T08:49:41.754Z,65.36
2022-09-09T08:50:41.713Z,65.05
2022-09-09T08:51:41.733Z,65.05
2022-09-09T08:52:41.685Z,64.25
2022-09-09T08:53:41.676Z,64.15
2022-09-09T08:54:52.019Z,64.25
2022-09-09T08:55:42.676Z,64.12
2022-09-09T08:56:41.627Z,63.92
2022-09-09T08:57:41.677Z,63.62
2022-09-09T08:58:41.635Z,64.03
2022-09-09T08:59:41.630Z,63.89
2022-09-09T09:00:41.627Z,63.69
2022-09-09T09:01:41.653Z,63.06
2022-09-09T09:02:41.591Z,62.46
2022-09-09T09:03:41.559Z,61.79
2022-09-09T09:04:41.609Z,62.19
2022-09-09T09:05:41.530Z,62.46
2022-09-09T09:06:41.528Z,62.56
2022-09-09T09:07:41.539Z,62.34
2022-09-09T09:08:41.534Z,61.43
2022-09-09T09:09:41.491Z,61.13
2022-09-09T09:10:42.745Z,60.71
2022-09-09T09:11:41.500Z,60.11
2022-09-09T09:12:41.479Z,59.70
2022-09-09T09:13:43.824Z,59.88
2022-09-09T09:14:42.875Z,59.18
2022-09-09T09:15:41.453Z,58.98
2022-09-09T09:16:41.419Z,58.98
2022-09-09T09:17:41.444Z,58.78
2022-09-09T09:18:41.432Z,58.48
2022-09-09T09:19:41.383Z,58.18
2022-09-09T09:20:41.394Z,58.98
2022-09-09T09:21:41.363Z,59.38
2022-09-09T09:22:41.687Z,60.17
2022-09-09T09:23:41.364Z,59.41
2022-09-09T09:24:42.292Z,60.61
2022-09-09T09:25:41.354Z,61.30
2022-09-09T09:26:41.355Z,62.34
2022-09-09T09:27:41.362Z,59.97
2022-09-09T09:28:41.308Z,60.86
2022-09-09T09:30:03.502Z,60.49
2022-09-09T09:30:42.337Z,60.29
2022-09-09T09:31:41.336Z,60.89
2022-09-09T09:32:41.257Z,60.89
2022-09-09T09:33:41.338Z,60.99
2022-09-09T09:34:41.277Z,61.52
2022-09-09T09:35:43.214Z,62.02
2022-09-09T09:36:41.217Z,62.32
2022-09-09T09:40:42.178Z,63.15
2022-09-09T09:41:41.147Z,63.15
2022-09-09T09:42:41.140Z,63.35
2022-09-09T09:43:41.199Z,63.15
2022-09-09T09:44:41.180Z,61.55
2022-09-09T09:45:43.951Z,61.58
2022-09-09T09:46:42.115Z,61.38
2022-09-09T09:47:41.121Z,61.68
2022-09-09T09:48:41.093Z,61.28
2022-09-09T09:49:41.099Z,61.48
2022-09-09T09:50:41.073Z,61.38
2022-09-09T09:51:41.043Z,61.08
2022-09-09T09:52:41.043Z,60.81
2022-09-09T09:53:41.025Z,61.28
2022-09-09T09:54:41.063Z,61.38
2022-09-09T09:55:41.344Z,61.08
2022-09-09T09:56:41.056Z,61.78
2022-09-09T09:57:40.974Z,61.38
2022-09-09T09:58:40.965Z,60.38
2022-09-09T09:59:41.302Z,58.87
2022-09-09T10:00:40.966Z,59.28
2022-09-09T10:01:40.982Z,59.58
2022-09-09T10:02:41.045Z,59.05
2022-09-09T10:03:40.926Z,59.25
2022-09-09T10:04:40.943Z,59.35
2022-09-09T10:05:40.916Z,59.35
2022-09-09T10:06:40.926Z,59.55
2022-09-09T10:07:40.868Z,58.02
2022-09-09T10:08:40.857Z,58.32
2022-09-09T10:09:40.878Z,58.12
2022-09-09T10:10:44.969Z,58.22
2022-09-09T10:11:41.848Z,57.82
2022-09-09T10:12:40.829Z,58.09
2022-09-09T10:13:40.949Z,58.09
2022-09-09T10:14:40.808Z,58.59
2022-09-09T10:15:40.829Z,57.19
2022-09-09T10:16:40.800Z,57.37
2022-09-09T10:17:40.770Z,57.76
2022-09-09T10:18:40.770Z,57.76
2022-09-09T10:19:40.741Z,57.67
2022-09-09T10:20:40.745Z,58.17
2022-09-09T10:21:40.733Z,57.76
2022-09-09T10:22:40.712Z,57.97
2022-09-09T10:23:40.712Z,57.46
2022-09-09T10:24:40.722Z,57.57
2022-09-09T10:25:40.712Z,57.76
2022-09-09T10:26:40.696Z,57.76
2022-09-09T10:27:40.673Z,57.57
2022-09-09T10:28:40.787Z,57.67
2022-09-09T10:29:40.648Z,56.67
2022-09-09T10:30:40.714Z,57.04
2022-09-09T10:31:40.626Z,57.74
2022-09-09T10:32:40.605Z,57.11
2022-09-09T10:33:40.644Z,56.98
2022-09-09T10:34:40.587Z,55.96
2022-09-09T10:35:40.597Z,56.16
2022-09-09T10:36:40.567Z,55.73
2022-09-09T10:37:40.618Z,55.33
2022-09-09T10:38:40.544Z,54.71
2022-09-09T10:39:42.945Z,54.71
2022-09-09T10:40:40.577Z,54.41
2022-09-09T10:41:40.577Z,54.61
2022-09-09T10:42:40.517Z,54.81
2022-09-09T10:43:40.507Z,54.51
2022-09-09T10:44:40.479Z,54.51
2022-09-09T10:45:40.499Z,54.51
2022-09-09T10:46:40.595Z,54.19
2022-09-09T10:47:40.490Z,54.19
2022-09-09T10:48:40.458Z,53.66
2022-09-09T10:49:40.461Z,53.86
2022-09-09T10:51:00.417Z,53.53
2022-09-09T10:51:42.325Z,53.14
2022-09-09T10:52:41.395Z,52.42
2022-09-09T10:53:40.382Z,52.22
2022-09-09T10:54:40.403Z,52.32
2022-09-09T10:55:40.381Z,52.91
2022-09-09T10:56:40.351Z,52.81
2022-09-09T10:57:40.342Z,53.21
2022-09-09T10:58:40.333Z,52.81
2022-09-09T10:59:40.374Z,52.91
2022-09-09T11:00:40.324Z,52.42
2022-09-09T11:01:40.342Z,52.91
2022-09-09T11:02:40.330Z,52.51
2022-09-09T11:03:40.294Z,52.51
2022-09-09T11:04:40.616Z,52.62
2022-09-09T11:05:40.266Z,52.42
2022-09-09T11:06:40.273Z,52.02
2022-09-09T11:07:40.234Z,51.52
2022-09-09T11:08:40.273Z,51.52
2022-09-09T11:09:40.217Z,51.95
2022-09-09T11:10:40.216Z,51.95
2022-09-09T11:11:40.208Z,52.07
2022-09-09T11:12:40.199Z,53.39
2022-09-09T11:13:40.187Z,54.41
2022-09-09T11:14:40.192Z,55.33
2022-09-09T11:15:40.167Z,55.66
2022-09-09T11:16:40.179Z,56.06
2022-09-09T11:17:40.133Z,56.88
2022-09-09T11:18:40.140Z,57.68
2022-09-09T11:19:40.152Z,57.51
2022-09-09T11:20:40.100Z,57.91
2022-09-09T11:21:40.139Z,57.84
2022-09-09T11:22:40.120Z,58.24
2022-09-09T11:23:42.090Z,58.97
2022-09-09T11:24:40.111Z,59.27
2022-09-09T11:25:40.092Z,58.86
2022-09-09T11:26:40.050Z,59.36
2022-09-09T11:27:40.751Z,59.79
2022-09-09T11:28:40.040Z,60.10
2022-09-09T11:29:40.070Z,60.49
2022-09-09T11:30:56.956Z,61.29
2022-09-09T11:31:41.045Z,61.89
2022-09-09T11:32:40.015Z,62.09
2022-09-09T11:33:39.955Z,62.49
2022-09-09T11:34:40.004Z,62.70
2022-09-09T11:35:39.965Z,62.06
2022-09-09T11:36:39.940Z,61.66
2022-09-09T11:37:39.946Z,61.83
2022-09-09T11:38:39.935Z,61.54
2022-09-09T11:39:39.966Z,59.83
2022-09-09T11:40:39.896Z,58.44
2022-09-09T11:41:39.904Z,58.56
2022-09-09T11:42:39.882Z,58.86
2022-09-09T11:43:40.179Z,57.97
2022-09-09T11:44:39.860Z,58.37
2022-09-09T11:45:39.870Z,58.37
2022-09-09T11:46:39.913Z,58.59
2022-09-09T11:47:39.828Z,58.59
2022-09-09T11:48:39.841Z,58.82
2022-09-09T11:49:39.799Z,59.02
2022-09-09T11:50:39.781Z,59.32
2022-09-09T11:51:39.798Z,59.85
2022-09-09T11:52:39.786Z,59.82
2022-09-09T11:53:39.751Z,59.62
2022-09-09T11:54:39.738Z,59.52
2022-09-09T11:55:39.738Z,59.59
2022-09-09T11:56:39.762Z,59.69
2022-09-09T11:57:39.712Z,59.59
2022-09-09T11:58:39.823Z,59.79
2022-09-09T11:59:39.689Z,59.79
2022-09-09T12:00:39.684Z,58.80
2022-09-09T12:01:39.688Z,58.26
2022-09-09T12:02:40.197Z,58.06
2022-09-09T12:03:39.714Z,57.87
2022-09-09T12:04:39.706Z,57.46
2022-09-09T12:05:39.635Z,57.04
2022-09-09T12:06:39.613Z,56.64
2022-09-09T12:07:39.605Z,55.32
2022-09-09T12:08:39.664Z,55.29
2022-09-09T12:09:39.594Z,54.86
2022-09-09T12:10:39.575Z,54.44
2022-09-09T12:11:39.605Z,53.81
2022-09-09T12:12:43.861Z,53.22
2022-09-09T12:13:39.546Z,52.76
2022-09-09T12:14:40.349Z,52.02
2022-09-09T12:15:39.514Z,51.92
2022-09-09T12:16:39.665Z,51.17
2022-09-09T12:17:40.297Z,48.33
2022-09-09T12:18:39.497Z,45.42
2022-09-09T12:19:39.479Z,43.15
2022-09-09T12:20:40.057Z,41.47
2022-09-09T12:21:39.449Z,39.80
2022-09-09T12:22:39.489Z,37.55
2022-09-09T12:23:39.550Z,35.56
2022-09-09T12:24:39.472Z,35.64
2022-09-09T12:25:39.412Z,34.71
2022-09-09T12:26:39.733Z,33.18
2022-09-09T12:27:39.449Z,32.24
2022-09-09T12:28:39.392Z,31.12
2022-09-09T12:29:39.403Z,30.00
2022-09-09T12:30:39.438Z,29.38
2022-09-09T12:31:42.674Z,28.36
2022-09-09T12:32:40.355Z,27.46
2022-09-09T12:33:39.345Z,26.95
2022-09-09T12:34:39.340Z,26.64
2022-09-09T12:35:39.315Z,26.05
2022-09-09T12:36:39.306Z,26.04
2022-09-09T12:37:39.327Z,25.53
2022-09-09T12:38:39.317Z,25.52
2022-09-09T12:39:39.319Z,25.04
2022-09-09T12:40:39.297Z,24.73
2022-09-09T12:41:39.290Z,23.96
2022-09-09T12:42:41.257Z,24.49
2022-09-09T12:43:39.249Z,26.65
2022-09-09T12:44:39.247Z,29.10
2022-09-09T12:45:40.096Z,31.25
2022-09-09T12:46:39.223Z,32.53
2022-09-09T12:47:39.199Z,33.75
2022-09-09T12:48:39.337Z,32.09
2022-09-09T12:49:39.185Z,32.23
2022-09-09T12:50:39.171Z,34.28
2022-09-09T12:51:39.162Z,33.53
2022-09-09T12:52:39.194Z,31.16
2022-09-09T12:53:39.162Z,30.11
2022-09-09T12:54:39.154Z,29.19
2022-09-09T12:55:39.174Z,28.68